sensor_id;sensor_type;location;lat;lon;timestamp;temperature;humidity
31387;DHT22;69978;50.096;8.448;2023-12-14T00:01:11;5.80;99.90
31387;DHT22;69978;50.096;8.448;2023-12-14T00:03:39;5.80;99.90
31387;DHT22;69978;50.096;8.448;2023-12-14T00:06:07;5.70;99.90
31387;DHT22;69978;50.096;8.448;2023-12-14T00:08:33;5.70;99.90
31387;DHT22;69978;50.096;8.448;2023-12-14T00:11:06;5.60;99.90
31387;DHT22;69978;50.096;8.448;2023-12-14T00:13:32;5.50;99.90
31387;DHT22;69978;50.096;8.448;2023-12-14T00:15:59;5.50;99.90
31387;DHT22;69978;50.096;8.448;2023-12-14T00:18:24;5.50;99.90
31387;DHT22;69978;50.096;8.448;2023-12-14T00:20:50;5.40;99.90
31387;DHT22;69978;50.096;8.448;2023-12-14T00:23:16;5.40;99.90
31387;DHT22;69978;50.096;8.448;2023-12-14T00:25:42;5.40;99.90
31387;DHT22;69978;50.096;8.448;2023-12-14T00:28:08;5.30;99.90
31387;DHT22;69978;50.096;8.448;2023-12-14T00:30:33;5.30;99.90
31387;DHT22;69978;50.096;8.448;2023-12-14T00:32:59;5.30;99.90
31387;DHT22;69978;50.096;8.448;2023-12-14T00:35:24;5.30;99.90
31387;DHT22;69978;50.096;8.448;2023-12-14T00:37:50;5.30;99.90
31387;DHT22;69978;50.096;8.448;2023-12-14T00:40:15;5.20;99.90
31387;DHT22;69978;50.096;8.448;2023-12-14T00:42:41;5.20;99.90
31387;DHT22;69978;50.096;8.448;2023-12-14T00:45:07;5.20;99.90
31387;DHT22;69978;50.096;8.448;2023-12-14T00:47:33;5.20;99.90
31387;DHT22;69978;50.096;8.448;2023-12-14T00:49:58;5.20;99.90
31387;DHT22;69978;50.096;8.448;2023-12-14T00:52:24;5.20;99.90
31387;DHT22;69978;50.096;8.448;2023-12-14T00:54:50;5.10;99.90
31387;DHT22;69978;50.096;8.448;2023-12-14T00:57:15;5.10;99.90
31387;DHT22;69978;50.096;8.448;2023-12-14T00:59:41;5.00;99.90
31387;DHT22;69978;50.096;8.448;2023-12-14T01:02:07;5.00;99.90
31387;DHT22;69978;50.096;8.448;2023-12-14T01:04:32;5.00;99.90
31387;DHT22;69978;50.096;8.448;2023-12-14T01:06:58;5.00;99.90
31387;DHT22;69978;50.096;8.448;2023-12-14T01:09:24;4.90;99.90
31387;DHT22;69978;50.096;8.448;2023-12-14T01:11:49;4.90;99.90
31387;DHT22;69978;50.096;8.448;2023-12-14T01:14:15;4.90;99.90
31387;DHT22;69978;50.096;8.448;2023-12-14T01:16:40;4.80;99.90
31387;DHT22;69978;50.096;8.448;2023-12-14T01:19:06;4.90;99.90
31387;DHT22;69978;50.096;8.448;2023-12-14T01:21:32;4.90;99.90
31387;DHT22;69978;50.096;8.448;2023-12-14T01:23:58;4.80;99.90
31387;DHT22;69978;50.096;8.448;2023-12-14T01:26:23;4.90;99.90
31387;DHT22;69978;50.096;8.448;2023-12-14T01:28:49;4.90;99.90
31387;DHT22;69978;50.096;8.448;2023-12-14T01:31:15;4.80;99.90
31387;DHT22;69978;50.096;8.448;2023-12-14T01:33:40;4.80;99.90
31387;DHT22;69978;50.096;8.448;2023-12-14T01:36:06;4.90;99.90
31387;DHT22;69978;50.096;8.448;2023-12-14T01:38:32;4.90;99.90
31387;DHT22;69978;50.096;8.448;2023-12-14T01:40:57;4.90;99.90
31387;DHT22;69978;50.096;8.448;2023-12-14T01:43:24;4.90;99.90
31387;DHT22;69978;50.096;8.448;2023-12-14T01:45:50;5.00;99.90
31387;DHT22;69978;50.096;8.448;2023-12-14T01:48:17;5.10;99.90
31387;DHT22;69978;50.096;8.448;2023-12-14T01:50:42;5.20;99.90
31387;DHT22;69978;50.096;8.448;2023-12-14T01:53:08;5.30;99.90
31387;DHT22;69978;50.096;8.448;2023-12-14T01:55:34;5.40;99.90
31387;DHT22;69978;50.096;8.448;2023-12-14T01:57:59;5.40;99.90
31387;DHT22;69978;50.096;8.448;2023-12-14T02:02:56;5.50;99.90
31387;DHT22;69978;50.096;8.448;2023-12-14T02:05:21;5.60;99.90
31387;DHT22;69978;50.096;8.448;2023-12-14T02:07:47;5.60;99.90
31387;DHT22;69978;50.096;8.448;2023-12-14T02:10:13;5.60;99.90
31387;DHT22;69978;50.096;8.448;2023-12-14T02:12:39;5.60;99.90
31387;DHT22;69978;50.096;8.448;2023-12-14T02:15:05;5.60;99.90
31387;DHT22;69978;50.096;8.448;2023-12-14T02:17:30;5.70;99.90
31387;DHT22;69978;50.096;8.448;2023-12-14T02:19:56;5.70;99.90
31387;DHT22;69978;50.096;8.448;2023-12-14T02:22:22;5.70;99.90
31387;DHT22;69978;50.096;8.448;2023-12-14T02:24:47;5.70;99.90
31387;DHT22;69978;50.096;8.448;2023-12-14T02:27:13;5.70;99.90
31387;DHT22;69978;50.096;8.448;2023-12-14T02:29:38;5.70;99.90
31387;DHT22;69978;50.096;8.448;2023-12-14T02:32:05;5.70;99.90
31387;DHT22;69978;50.096;8.448;2023-12-14T02:34:31;5.80;99.90
31387;DHT22;69978;50.096;8.448;2023-12-14T02:36:57;5.80;99.90
31387;DHT22;69978;50.096;8.448;2023-12-14T02:39:22;5.70;99.90
31387;DHT22;69978;50.096;8.448;2023-12-14T02:41:48;5.80;99.90
31387;DHT22;69978;50.096;8.448;2023-12-14T02:44:13;5.80;99.90
31387;DHT22;69978;50.096;8.448;2023-12-14T02:46:39;5.80;99.90
31387;DHT22;69978;50.096;8.448;2023-12-14T02:49:05;5.90;99.90
31387;DHT22;69978;50.096;8.448;2023-12-14T02:51:30;5.90;99.90
31387;DHT22;69978;50.096;8.448;2023-12-14T02:53:57;5.90;99.90
31387;DHT22;69978;50.096;8.448;2023-12-14T02:56:23;6.00;99.90
31387;DHT22;69978;50.096;8.448;2023-12-14T02:58:49;6.00;99.90
31387;DHT22;69978;50.096;8.448;2023-12-14T03:01:20;6.00;99.90
31387;DHT22;69978;50.096;8.448;2023-12-14T03:03:47;6.00;99.90
31387;DHT22;69978;50.096;8.448;2023-12-14T03:06:12;6.00;99.90
31387;DHT22;69978;50.096;8.448;2023-12-14T03:08:38;6.00;99.90
31387;DHT22;69978;50.096;8.448;2023-12-14T03:11:04;6.10;99.90
31387;DHT22;69978;50.096;8.448;2023-12-14T03:13:30;6.10;99.90
31387;DHT22;69978;50.096;8.448;2023-12-14T03:15:57;6.10;99.90
31387;DHT22;69978;50.096;8.448;2023-12-14T03:18:23;6.10;99.90
31387;DHT22;69978;50.096;8.448;2023-12-14T03:20:48;6.20;99.90
31387;DHT22;69978;50.096;8.448;2023-12-14T03:23:14;6.20;99.90
31387;DHT22;69978;50.096;8.448;2023-12-14T03:25:40;6.20;99.90
31387;DHT22;69978;50.096;8.448;2023-12-14T03:28:06;6.20;99.90
31387;DHT22;69978;50.096;8.448;2023-12-14T03:30:31;6.20;99.90
31387;DHT22;69978;50.096;8.448;2023-12-14T03:32:57;6.20;99.90
31387;DHT22;69978;50.096;8.448;2023-12-14T03:35:23;6.20;99.90
31387;DHT22;69978;50.096;8.448;2023-12-14T03:37:48;6.20;99.90
31387;DHT22;69978;50.096;8.448;2023-12-14T03:40:14;6.30;99.90
31387;DHT22;69978;50.096;8.448;2023-12-14T03:42:40;6.30;99.90
31387;DHT22;69978;50.096;8.448;2023-12-14T03:45:06;6.30;99.90
31387;DHT22;69978;50.096;8.448;2023-12-14T03:47:32;6.30;99.90
31387;DHT22;69978;50.096;8.448;2023-12-14T03:49:57;6.30;99.90
31387;DHT22;69978;50.096;8.448;2023-12-14T03:52:23;6.40;99.90
31387;DHT22;69978;50.096;8.448;2023-12-14T03:54:48;6.50;99.90
31387;DHT22;69978;50.096;8.448;2023-12-14T03:57:14;6.50;99.90
31387;DHT22;69978;50.096;8.448;2023-12-14T03:59:40;6.50;99.90
31387;DHT22;69978;50.096;8.448;2023-12-14T04:02:06;6.50;99.90
31387;DHT22;69978;50.096;8.448;2023-12-14T04:04:31;6.40;99.90
31387;DHT22;69978;50.096;8.448;2023-12-14T04:06:57;6.40;99.90
31387;DHT22;69978;50.096;8.448;2023-12-14T04:09:23;6.40;99.90
31387;DHT22;69978;50.096;8.448;2023-12-14T04:11:48;6.50;99.90
31387;DHT22;69978;50.096;8.448;2023-12-14T04:14:14;6.50;99.90
31387;DHT22;69978;50.096;8.448;2023-12-14T04:16:41;6.50;99.90
31387;DHT22;69978;50.096;8.448;2023-12-14T04:19:06;6.50;99.90
31387;DHT22;69978;50.096;8.448;2023-12-14T04:21:36;6.50;99.90
31387;DHT22;69978;50.096;8.448;2023-12-14T04:24:02;6.50;99.90
31387;DHT22;69978;50.096;8.448;2023-12-14T04:26:27;6.60;99.90
31387;DHT22;69978;50.096;8.448;2023-12-14T04:28:53;6.60;99.90
31387;DHT22;69978;50.096;8.448;2023-12-14T04:31:19;6.60;99.90
31387;DHT22;69978;50.096;8.448;2023-12-14T04:33:44;6.60;99.90
31387;DHT22;69978;50.096;8.448;2023-12-14T04:36:10;6.70;99.90
31387;DHT22;69978;50.096;8.448;2023-12-14T04:38:37;6.70;99.90
31387;DHT22;69978;50.096;8.448;2023-12-14T04:41:02;6.60;99.90
31387;DHT22;69978;50.096;8.448;2023-12-14T04:43:28;6.70;99.90
31387;DHT22;69978;50.096;8.448;2023-12-14T04:45:56;6.70;99.90
31387;DHT22;69978;50.096;8.448;2023-12-14T04:48:21;6.70;99.90
31387;DHT22;69978;50.096;8.448;2023-12-14T04:50:47;6.70;99.90
31387;DHT22;69978;50.096;8.448;2023-12-14T04:53:12;6.70;99.90
31387;DHT22;69978;50.096;8.448;2023-12-14T04:55:38;6.70;99.90
31387;DHT22;69978;50.096;8.448;2023-12-14T04:58:04;6.80;99.90
31387;DHT22;69978;50.096;8.448;2023-12-14T05:00:29;6.70;99.90
31387;DHT22;69978;50.096;8.448;2023-12-14T05:02:55;6.70;99.90
31387;DHT22;69978;50.096;8.448;2023-12-14T05:05:20;6.70;99.90
31387;DHT22;69978;50.096;8.448;2023-12-14T05:07:46;6.80;99.90
31387;DHT22;69978;50.096;8.448;2023-12-14T05:10:12;6.80;99.90
31387;DHT22;69978;50.096;8.448;2023-12-14T05:12:38;6.80;99.90
31387;DHT22;69978;50.096;8.448;2023-12-14T05:15:05;6.80;99.90
31387;DHT22;69978;50.096;8.448;2023-12-14T05:17:31;6.80;99.90
31387;DHT22;69978;50.096;8.448;2023-12-14T05:19:58;6.80;99.90
31387;DHT22;69978;50.096;8.448;2023-12-14T05:22:24;6.90;99.90
31387;DHT22;69978;50.096;8.448;2023-12-14T05:24:50;6.80;99.90
31387;DHT22;69978;50.096;8.448;2023-12-14T05:27:15;6.80;99.90
31387;DHT22;69978;50.096;8.448;2023-12-14T05:29:41;6.80;99.90
31387;DHT22;69978;50.096;8.448;2023-12-14T05:32:07;6.80;99.90
31387;DHT22;69978;50.096;8.448;2023-12-14T05:34:32;6.90;99.90
31387;DHT22;69978;50.096;8.448;2023-12-14T05:36:58;6.90;99.90
31387;DHT22;69978;50.096;8.448;2023-12-14T05:39:23;6.90;99.90
31387;DHT22;69978;50.096;8.448;2023-12-14T05:41:49;6.80;99.90
31387;DHT22;69978;50.096;8.448;2023-12-14T05:44:15;6.80;99.90
31387;DHT22;69978;50.096;8.448;2023-12-14T05:46:41;6.80;99.90
31387;DHT22;69978;50.096;8.448;2023-12-14T05:49:07;6.80;99.90
31387;DHT22;69978;50.096;8.448;2023-12-14T05:51:33;6.80;99.90
31387;DHT22;69978;50.096;8.448;2023-12-14T05:53:59;6.80;99.90
31387;DHT22;69978;50.096;8.448;2023-12-14T05:56:28;6.80;99.90
31387;DHT22;69978;50.096;8.448;2023-12-14T05:58:54;6.80;99.90
31387;DHT22;69978;50.096;8.448;2023-12-14T06:01:20;6.70;99.90
31387;DHT22;69978;50.096;8.448;2023-12-14T06:03:46;6.70;99.90
31387;DHT22;69978;50.096;8.448;2023-12-14T06:06:12;6.70;99.90
31387;DHT22;69978;50.096;8.448;2023-12-14T06:08:41;6.80;99.90
31387;DHT22;69978;50.096;8.448;2023-12-14T06:11:07;6.80;99.90
31387;DHT22;69978;50.096;8.448;2023-12-14T06:13:34;6.80;99.90
31387;DHT22;69978;50.096;8.448;2023-12-14T06:16:00;6.90;99.90
31387;DHT22;69978;50.096;8.448;2023-12-14T06:18:26;6.90;99.90
31387;DHT22;69978;50.096;8.448;2023-12-14T06:20:51;6.90;99.90
31387;DHT22;69978;50.096;8.448;2023-12-14T06:23:18;6.80;99.90
31387;DHT22;69978;50.096;8.448;2023-12-14T06:25:43;6.90;99.90
31387;DHT22;69978;50.096;8.448;2023-12-14T06:28:09;6.90;99.90
31387;DHT22;69978;50.096;8.448;2023-12-14T06:30:35;6.90;99.90
31387;DHT22;69978;50.096;8.448;2023-12-14T06:33:00;6.90;99.90
31387;DHT22;69978;50.096;8.448;2023-12-14T06:35:26;6.90;99.90
31387;DHT22;69978;50.096;8.448;2023-12-14T06:37:51;6.90;99.90
31387;DHT22;69978;50.096;8.448;2023-12-14T06:40:17;6.90;99.90
31387;DHT22;69978;50.096;8.448;2023-12-14T06:42:43;6.90;99.90
31387;DHT22;69978;50.096;8.448;2023-12-14T06:45:09;6.90;99.90
31387;DHT22;69978;50.096;8.448;2023-12-14T06:47:35;7.00;99.90
31387;DHT22;69978;50.096;8.448;2023-12-14T06:50:01;6.90;99.90
31387;DHT22;69978;50.096;8.448;2023-12-14T06:52:27;6.80;99.90
31387;DHT22;69978;50.096;8.448;2023-12-14T06:54:52;6.70;99.90
31387;DHT22;69978;50.096;8.448;2023-12-14T06:57:18;6.70;99.90
31387;DHT22;69978;50.096;8.448;2023-12-14T06:59:43;6.70;99.90
31387;DHT22;69978;50.096;8.448;2023-12-14T07:02:09;6.70;99.90
31387;DHT22;69978;50.096;8.448;2023-12-14T07:04:35;6.80;99.90
31387;DHT22;69978;50.096;8.448;2023-12-14T07:07:00;6.70;99.90
31387;DHT22;69978;50.096;8.448;2023-12-14T07:09:26;6.70;99.90
31387;DHT22;69978;50.096;8.448;2023-12-14T07:11:52;6.80;99.90
31387;DHT22;69978;50.096;8.448;2023-12-14T07:14:17;6.80;99.90
31387;DHT22;69978;50.096;8.448;2023-12-14T07:16:43;6.80;99.90
31387;DHT22;69978;50.096;8.448;2023-12-14T07:19:09;6.80;99.90
31387;DHT22;69978;50.096;8.448;2023-12-14T07:21:36;6.80;99.90
31387;DHT22;69978;50.096;8.448;2023-12-14T07:24:05;6.80;99.90
31387;DHT22;69978;50.096;8.448;2023-12-14T07:26:31;6.80;99.90
31387;DHT22;69978;50.096;8.448;2023-12-14T07:28:57;6.80;99.90
31387;DHT22;69978;50.096;8.448;2023-12-14T07:31:22;6.80;99.90
31387;DHT22;69978;50.096;8.448;2023-12-14T07:33:49;6.80;99.90
31387;DHT22;69978;50.096;8.448;2023-12-14T07:36:15;6.80;99.90
31387;DHT22;69978;50.096;8.448;2023-12-14T07:38:41;6.80;99.90
31387;DHT22;69978;50.096;8.448;2023-12-14T07:41:06;6.80;99.90
31387;DHT22;69978;50.096;8.448;2023-12-14T07:43:32;6.90;99.90
31387;DHT22;69978;50.096;8.448;2023-12-14T07:45:58;6.90;99.90
31387;DHT22;69978;50.096;8.448;2023-12-14T07:48:24;6.90;99.90
31387;DHT22;69978;50.096;8.448;2023-12-14T07:50:49;6.90;99.90
31387;DHT22;69978;50.096;8.448;2023-12-14T07:53:15;6.90;99.90
31387;DHT22;69978;50.096;8.448;2023-12-14T07:55:41;6.90;99.90
31387;DHT22;69978;50.096;8.448;2023-12-14T07:58:07;6.90;99.90
31387;DHT22;69978;50.096;8.448;2023-12-14T08:00:32;7.00;99.90
31387;DHT22;69978;50.096;8.448;2023-12-14T08:03:04;7.00;99.90
31387;DHT22;69978;50.096;8.448;2023-12-14T08:05:30;7.00;99.90
31387;DHT22;69978;50.096;8.448;2023-12-14T08:07:56;7.00;99.90
31387;DHT22;69978;50.096;8.448;2023-12-14T08:10:21;7.00;99.90
31387;DHT22;69978;50.096;8.448;2023-12-14T08:12:47;7.00;99.90
31387;DHT22;69978;50.096;8.448;2023-12-14T08:15:13;7.10;99.90
31387;DHT22;69978;50.096;8.448;2023-12-14T08:17:38;7.10;99.90
31387;DHT22;69978;50.096;8.448;2023-12-14T08:20:05;7.10;99.90
31387;DHT22;69978;50.096;8.448;2023-12-14T08:22:34;7.20;99.90
31387;DHT22;69978;50.096;8.448;2023-12-14T08:25:01;7.10;99.90
31387;DHT22;69978;50.096;8.448;2023-12-14T08:27:27;7.20;99.90
31387;DHT22;69978;50.096;8.448;2023-12-14T08:29:52;7.20;99.90
31387;DHT22;69978;50.096;8.448;2023-12-14T08:32:18;7.30;99.90
31387;DHT22;69978;50.096;8.448;2023-12-14T08:34:44;7.20;99.90
31387;DHT22;69978;50.096;8.448;2023-12-14T08:37:09;7.30;99.90
31387;DHT22;69978;50.096;8.448;2023-12-14T08:39:35;7.30;99.90
31387;DHT22;69978;50.096;8.448;2023-12-14T08:42:02;7.30;99.90
31387;DHT22;69978;50.096;8.448;2023-12-14T08:44:28;7.30;99.90
31387;DHT22;69978;50.096;8.448;2023-12-14T08:46:53;7.40;99.90
31387;DHT22;69978;50.096;8.448;2023-12-14T08:49:19;7.30;99.90
31387;DHT22;69978;50.096;8.448;2023-12-14T08:51:44;7.30;99.90
31387;DHT22;69978;50.096;8.448;2023-12-14T08:54:11;7.40;99.90
31387;DHT22;69978;50.096;8.448;2023-12-14T08:56:37;7.30;99.90
31387;DHT22;69978;50.096;8.448;2023-12-14T08:59:18;7.40;99.90
31387;DHT22;69978;50.096;8.448;2023-12-14T09:01:45;7.40;99.90
31387;DHT22;69978;50.096;8.448;2023-12-14T09:04:11;7.40;99.90
31387;DHT22;69978;50.096;8.448;2023-12-14T09:06:37;7.30;99.90
31387;DHT22;69978;50.096;8.448;2023-12-14T09:09:03;7.40;99.90
31387;DHT22;69978;50.096;8.448;2023-12-14T09:11:28;7.40;99.90
31387;DHT22;69978;50.096;8.448;2023-12-14T09:13:54;7.40;99.90
31387;DHT22;69978;50.096;8.448;2023-12-14T09:16:21;7.40;99.90
31387;DHT22;69978;50.096;8.448;2023-12-14T09:18:46;7.40;99.90
31387;DHT22;69978;50.096;8.448;2023-12-14T09:21:12;7.40;99.90
31387;DHT22;69978;50.096;8.448;2023-12-14T09:23:40;7.40;99.90
31387;DHT22;69978;50.096;8.448;2023-12-14T09:26:06;7.40;99.90
31387;DHT22;69978;50.096;8.448;2023-12-14T09:28:32;7.40;99.90
31387;DHT22;69978;50.096;8.448;2023-12-14T09:30:58;7.40;99.90
31387;DHT22;69978;50.096;8.448;2023-12-14T09:33:24;7.40;99.90
31387;DHT22;69978;50.096;8.448;2023-12-14T09:35:49;7.40;99.90
31387;DHT22;69978;50.096;8.448;2023-12-14T09:38:16;7.40;99.90
31387;DHT22;69978;50.096;8.448;2023-12-14T09:40:44;7.40;99.90
31387;DHT22;69978;50.096;8.448;2023-12-14T09:43:12;7.50;99.90
31387;DHT22;69978;50.096;8.448;2023-12-14T09:45:41;7.40;99.90
31387;DHT22;69978;50.096;8.448;2023-12-14T09:48:10;7.40;99.90
31387;DHT22;69978;50.096;8.448;2023-12-14T09:50:38;7.40;99.90
31387;DHT22;69978;50.096;8.448;2023-12-14T09:53:04;7.40;99.90
31387;DHT22;69978;50.096;8.448;2023-12-14T09:55:30;7.40;99.90
31387;DHT22;69978;50.096;8.448;2023-12-14T09:57:56;7.40;99.90
31387;DHT22;69978;50.096;8.448;2023-12-14T10:00:38;7.40;99.90
31387;DHT22;69978;50.096;8.448;2023-12-14T10:03:24;7.40;99.90
31387;DHT22;69978;50.096;8.448;2023-12-14T10:05:52;7.40;99.90
31387;DHT22;69978;50.096;8.448;2023-12-14T10:08:18;7.40;99.90
31387;DHT22;69978;50.096;8.448;2023-12-14T10:10:46;7.40;99.90
31387;DHT22;69978;50.096;8.448;2023-12-14T10:13:11;7.40;99.90
31387;DHT22;69978;50.096;8.448;2023-12-14T10:15:45;7.40;99.90
31387;DHT22;69978;50.096;8.448;2023-12-14T10:18:11;7.40;99.90
31387;DHT22;69978;50.096;8.448;2023-12-14T10:20:37;7.40;99.90
31387;DHT22;69978;50.096;8.448;2023-12-14T10:23:05;7.40;99.90
31387;DHT22;69978;50.096;8.448;2023-12-14T10:25:31;7.40;99.90
31387;DHT22;69978;50.096;8.448;2023-12-14T10:27:57;7.30;99.90
31387;DHT22;69978;50.096;8.448;2023-12-14T10:30:23;7.40;99.90
31387;DHT22;69978;50.096;8.448;2023-12-14T10:32:48;7.40;99.90
31387;DHT22;69978;50.096;8.448;2023-12-14T10:35:15;7.40;99.90
31387;DHT22;69978;50.096;8.448;2023-12-14T10:37:47;7.40;99.90
31387;DHT22;69978;50.096;8.448;2023-12-14T10:40:14;7.40;99.90
31387;DHT22;69978;50.096;8.448;2023-12-14T10:42:44;7.40;99.90
31387;DHT22;69978;50.096;8.448;2023-12-14T10:45:14;7.40;99.90
31387;DHT22;69978;50.096;8.448;2023-12-14T10:47:46;7.40;99.90
31387;DHT22;69978;50.096;8.448;2023-12-14T10:50:13;7.40;99.90
31387;DHT22;69978;50.096;8.448;2023-12-14T10:52:40;7.40;99.90
31387;DHT22;69978;50.096;8.448;2023-12-14T10:55:18;7.50;99.90
31387;DHT22;69978;50.096;8.448;2023-12-14T10:57:46;7.50;99.90
31387;DHT22;69978;50.096;8.448;2023-12-14T11:00:11;7.50;99.90
31387;DHT22;69978;50.096;8.448;2023-12-14T11:02:41;7.50;99.90
31387;DHT22;69978;50.096;8.448;2023-12-14T11:05:12;7.50;99.90
31387;DHT22;69978;50.096;8.448;2023-12-14T11:07:54;7.50;99.90
31387;DHT22;69978;50.096;8.448;2023-12-14T11:10:22;7.50;99.90
31387;DHT22;69978;50.096;8.448;2023-12-14T11:12:56;7.50;99.90
31387;DHT22;69978;50.096;8.448;2023-12-14T11:15:29;7.60;99.90
31387;DHT22;69978;50.096;8.448;2023-12-14T11:25:52;7.80;99.90
31387;DHT22;69978;50.096;8.448;2023-12-14T11:28:19;7.80;99.90
31387;DHT22;69978;50.096;8.448;2023-12-14T11:30:46;7.80;99.90
31387;DHT22;69978;50.096;8.448;2023-12-14T11:33:12;7.90;99.90
31387;DHT22;69978;50.096;8.448;2023-12-14T11:35:39;7.90;99.90
31387;DHT22;69978;50.096;8.448;2023-12-14T11:38:05;7.90;99.90
31387;DHT22;69978;50.096;8.448;2023-12-14T11:40:36;7.90;99.90
31387;DHT22;69978;50.096;8.448;2023-12-14T11:43:03;8.00;99.90
31387;DHT22;69978;50.096;8.448;2023-12-14T11:45:39;8.00;99.90
31387;DHT22;69978;50.096;8.448;2023-12-14T11:48:06;8.10;99.90
31387;DHT22;69978;50.096;8.448;2023-12-14T11:50:33;8.10;99.90
31387;DHT22;69978;50.096;8.448;2023-12-14T11:53:03;8.20;99.90
31387;DHT22;69978;50.096;8.448;2023-12-14T11:55:34;8.10;99.90
31387;DHT22;69978;50.096;8.448;2023-12-14T11:58:00;8.10;99.90
31387;DHT22;69978;50.096;8.448;2023-12-14T12:00:27;8.20;99.90
31387;DHT22;69978;50.096;8.448;2023-12-14T12:03:15;8.10;99.90
31387;DHT22;69978;50.096;8.448;2023-12-14T12:05:46;8.20;99.90
31387;DHT22;69978;50.096;8.448;2023-12-14T12:08:13;8.10;99.90
31387;DHT22;69978;50.096;8.448;2023-12-14T12:10:40;8.10;99.90
31387;DHT22;69978;50.096;8.448;2023-12-14T12:15:38;8.10;99.90
31387;DHT22;69978;50.096;8.448;2023-12-14T12:18:12;8.10;99.90
31387;DHT22;69978;50.096;8.448;2023-12-14T12:20:38;8.10;99.90
31387;DHT22;69978;50.096;8.448;2023-12-14T12:23:05;8.10;99.90
31387;DHT22;69978;50.096;8.448;2023-12-14T12:25:31;8.10;99.90
31387;DHT22;69978;50.096;8.448;2023-12-14T12:27:57;8.10;99.90
31387;DHT22;69978;50.096;8.448;2023-12-14T12:30:24;8.00;99.90
31387;DHT22;69978;50.096;8.448;2023-12-14T12:32:50;8.00;99.90
31387;DHT22;69978;50.096;8.448;2023-12-14T12:35:20;8.00;99.90
31387;DHT22;69978;50.096;8.448;2023-12-14T12:37:46;8.00;99.90
31387;DHT22;69978;50.096;8.448;2023-12-14T12:40:12;8.00;99.90
31387;DHT22;69978;50.096;8.448;2023-12-14T12:42:40;8.00;99.90
31387;DHT22;69978;50.096;8.448;2023-12-14T12:45:06;8.10;99.90
31387;DHT22;69978;50.096;8.448;2023-12-14T12:47:32;8.10;99.90
31387;DHT22;69978;50.096;8.448;2023-12-14T12:49:58;8.20;99.90
31387;DHT22;69978;50.096;8.448;2023-12-14T12:52:23;8.20;99.90
31387;DHT22;69978;50.096;8.448;2023-12-14T12:54:49;8.30;99.90
31387;DHT22;69978;50.096;8.448;2023-12-14T12:57:15;8.30;99.90
31387;DHT22;69978;50.096;8.448;2023-12-14T12:59:40;8.30;99.90
31387;DHT22;69978;50.096;8.448;2023-12-14T13:02:06;8.30;99.90
31387;DHT22;69978;50.096;8.448;2023-12-14T13:04:32;8.30;99.90
31387;DHT22;69978;50.096;8.448;2023-12-14T13:06:58;8.40;99.90
31387;DHT22;69978;50.096;8.448;2023-12-14T13:09:27;8.30;99.90
31387;DHT22;69978;50.096;8.448;2023-12-14T13:11:53;8.40;99.90
31387;DHT22;69978;50.096;8.448;2023-12-14T13:14:18;8.40;99.90
31387;DHT22;69978;50.096;8.448;2023-12-14T13:16:44;8.30;99.90
31387;DHT22;69978;50.096;8.448;2023-12-14T13:19:09;8.30;99.90
31387;DHT22;69978;50.096;8.448;2023-12-14T13:21:35;8.30;99.90
31387;DHT22;69978;50.096;8.448;2023-12-14T13:24:02;8.30;99.90
31387;DHT22;69978;50.096;8.448;2023-12-14T13:26:28;8.30;99.90
31387;DHT22;69978;50.096;8.448;2023-12-14T13:28:54;8.30;99.90
31387;DHT22;69978;50.096;8.448;2023-12-14T13:31:21;8.30;99.90
31387;DHT22;69978;50.096;8.448;2023-12-14T13:33:47;8.20;99.90
31387;DHT22;69978;50.096;8.448;2023-12-14T13:36:14;8.20;99.90
31387;DHT22;69978;50.096;8.448;2023-12-14T13:38:41;8.20;99.90
31387;DHT22;69978;50.096;8.448;2023-12-14T13:41:07;8.20;99.90
31387;DHT22;69978;50.096;8.448;2023-12-14T13:43:33;8.20;99.90
31387;DHT22;69978;50.096;8.448;2023-12-14T13:45:59;8.20;99.90
31387;DHT22;69978;50.096;8.448;2023-12-14T13:48:26;8.10;99.90
31387;DHT22;69978;50.096;8.448;2023-12-14T13:50:53;8.20;99.90
31387;DHT22;69978;50.096;8.448;2023-12-14T13:53:19;8.20;99.90
31387;DHT22;69978;50.096;8.448;2023-12-14T13:55:46;8.10;99.90
31387;DHT22;69978;50.096;8.448;2023-12-14T13:58:12;8.10;99.90
31387;DHT22;69978;50.096;8.448;2023-12-14T14:00:38;8.10;99.90
31387;DHT22;69978;50.096;8.448;2023-12-14T14:03:04;8.10;99.90
31387;DHT22;69978;50.096;8.448;2023-12-14T14:05:31;8.10;99.90
31387;DHT22;69978;50.096;8.448;2023-12-14T14:07:58;8.10;99.90
31387;DHT22;69978;50.096;8.448;2023-12-14T14:10:24;8.10;99.90
31387;DHT22;69978;50.096;8.448;2023-12-14T14:12:51;8.00;99.90
31387;DHT22;69978;50.096;8.448;2023-12-14T14:15:18;8.10;99.90
31387;DHT22;69978;50.096;8.448;2023-12-14T14:17:45;8.00;99.90
31387;DHT22;69978;50.096;8.448;2023-12-14T14:20:13;8.10;99.90
31387;DHT22;69978;50.096;8.448;2023-12-14T14:22:40;8.10;99.90
31387;DHT22;69978;50.096;8.448;2023-12-14T14:25:06;8.00;99.90
31387;DHT22;69978;50.096;8.448;2023-12-14T14:27:32;8.00;99.90
31387;DHT22;69978;50.096;8.448;2023-12-14T14:29:59;7.90;99.90
31387;DHT22;69978;50.096;8.448;2023-12-14T14:32:24;7.90;99.90
31387;DHT22;69978;50.096;8.448;2023-12-14T14:34:50;7.90;99.90
31387;DHT22;69978;50.096;8.448;2023-12-14T14:37:16;7.90;99.90
31387;DHT22;69978;50.096;8.448;2023-12-14T14:39:42;7.90;99.90
31387;DHT22;69978;50.096;8.448;2023-12-14T14:42:09;7.90;99.90
31387;DHT22;69978;50.096;8.448;2023-12-14T14:44:34;7.80;99.90
31387;DHT22;69978;50.096;8.448;2023-12-14T14:47:01;7.90;99.90
31387;DHT22;69978;50.096;8.448;2023-12-14T14:49:27;7.80;99.90
31387;DHT22;69978;50.096;8.448;2023-12-14T14:51:53;7.80;99.90
31387;DHT22;69978;50.096;8.448;2023-12-14T14:54:19;7.80;99.90
31387;DHT22;69978;50.096;8.448;2023-12-14T14:56:44;7.80;99.90
31387;DHT22;69978;50.096;8.448;2023-12-14T14:59:10;7.80;99.90
31387;DHT22;69978;50.096;8.448;2023-12-14T15:01:37;7.80;99.90
31387;DHT22;69978;50.096;8.448;2023-12-14T15:04:03;7.80;99.90
31387;DHT22;69978;50.096;8.448;2023-12-14T15:06:28;7.80;99.90
31387;DHT22;69978;50.096;8.448;2023-12-14T15:08:54;7.70;99.90
31387;DHT22;69978;50.096;8.448;2023-12-14T15:11:20;7.70;99.90
31387;DHT22;69978;50.096;8.448;2023-12-14T15:13:46;7.70;99.90
31387;DHT22;69978;50.096;8.448;2023-12-14T15:16:11;7.60;99.90
31387;DHT22;69978;50.096;8.448;2023-12-14T15:18:37;7.60;99.90
31387;DHT22;69978;50.096;8.448;2023-12-14T15:21:08;7.50;99.90
31387;DHT22;69978;50.096;8.448;2023-12-14T15:23:33;7.50;99.90
31387;DHT22;69978;50.096;8.448;2023-12-14T15:26:00;7.40;99.90
31387;DHT22;69978;50.096;8.448;2023-12-14T15:28:25;7.40;99.90
31387;DHT22;69978;50.096;8.448;2023-12-14T15:30:51;7.40;99.90
31387;DHT22;69978;50.096;8.448;2023-12-14T15:33:17;7.40;99.90
31387;DHT22;69978;50.096;8.448;2023-12-14T15:35:43;7.30;99.90
31387;DHT22;69978;50.096;8.448;2023-12-14T15:38:09;7.30;99.90
31387;DHT22;69978;50.096;8.448;2023-12-14T15:40:35;7.20;99.90
31387;DHT22;69978;50.096;8.448;2023-12-14T15:43:06;7.20;99.90
31387;DHT22;69978;50.096;8.448;2023-12-14T15:45:32;7.10;99.90
31387;DHT22;69978;50.096;8.448;2023-12-14T15:48:00;7.10;99.90
31387;DHT22;69978;50.096;8.448;2023-12-14T15:50:26;7.10;99.90
31387;DHT22;69978;50.096;8.448;2023-12-14T15:52:52;7.10;99.90